Deer Park, Ohio
Current Conditions -  °F | °C
As of 2:53 AM on Sunday 26 Oct 2014 (Local Time) from KLUK Reporting Station
Clear Clear  
Wind Chill: 59°   Ceiling: Unl
Heat Index: 59°   Visibility: 10mi
Dew Point: 38°   Wind: 7mph
Humidity: 46%   Direction: 300°WNW
Pressure: 29.96"   Gusts: NA
Location:  39.2094°N, 84.3952°W
Report Text: KLUK 260653Z AUTO 30006KT 10SM CLR 15/03 A2996 RMK AO2 SLP142 T01500033
Loading
Personal Weather Stations






























Interactive Weather Map
Tropical Storm Tracking
New forecast layout! Learn more

10-Day Weather Forecast

Advertisements
Track Severe Weather on mobile